sensor_id;sensor_type;location;lat;lon;timestamp;pressure;altitude;pressure_sealevel;temperature;humidity
2036;BME280;23642;42.658;23.350;2022-10-10T00:26:51;49541.53;;;-146.31;100.00
2036;BME280;23642;42.658;23.350;2022-10-10T00:30:52;49502.34;;;-146.31;100.00
2036;BME280;23642;42.658;23.350;2022-10-10T00:33:09;49465.25;;;-146.31;100.00
2036;BME280;23642;42.658;23.350;2022-10-10T01:10:01;49374.53;;;-146.31;100.00
2036;BME280;23642;42.658;23.350;2022-10-10T01:13:06;49331.22;;;-146.31;100.00
2036;BME280;23642;42.658;23.350;2022-10-10T01:17:01;49308.56;;;-146.31;100.00
2036;BME280;23642;42.658;23.350;2022-10-10T02:35:38;48628.25;;;-146.31;100.00
2036;BME280;23642;42.658;23.350;2022-10-10T02:38:53;48613.81;;;-146.31;100.00
2036;BME280;23642;42.658;23.350;2022-10-10T02:42:32;48576.72;;;-146.31;100.00
2036;BME280;23642;42.658;23.350;2022-10-10T02:46:22;48558.19;;;-146.31;100.00
2036;BME280;23642;42.658;23.350;2022-10-10T02:49:23;48556.13;;;-146.31;100.00
2036;BME280;23642;42.658;23.350;2022-10-10T03:40:58;48488.09;;;-146.31;100.00
2036;BME280;23642;42.658;23.350;2022-10-10T03:56:57;48477.78;;;-146.31;100.00
2036;BME280;23642;42.658;23.350;2022-10-10T04:16:48;48494.28;;;-146.31;100.00
2036;BME280;23642;42.658;23.350;2022-10-10T05:00:25;48428.31;;;-146.31;100.00
2036;BME280;23642;42.658;23.350;2022-10-10T05:07:54;48362.38;;;-146.31;100.00
2036;BME280;23642;42.658;23.350;2022-10-10T05:30:23;48494.28;;;-146.31;100.00
2036;BME280;23642;42.658;23.350;2022-10-10T05:33:36;48607.66;;;-146.31;100.00
2036;BME280;23642;42.658;23.350;2022-10-10T05:37:58;48704.53;;;-146.31;100.00
2036;BME280;23642;42.658;23.350;2022-10-10T05:41:06;48768.44;;;-146.31;100.00
2036;BME280;23642;42.658;23.350;2022-10-10T05:44:19;48852.94;;;-146.31;99.86
2036;BME280;23642;42.658;23.350;2022-10-10T05:54:11;49003.44;;;-146.31;99.06
2036;BME280;23642;42.658;23.350;2022-10-10T05:57:30;49063.22;;;-146.31;98.29
2036;BME280;23642;42.658;23.350;2022-10-10T06:01:06;49205.47;;;-146.31;95.89
2036;BME280;23642;42.658;23.350;2022-10-10T06:05:30;49287.94;;;-146.31;95.28
2036;BME280;23642;42.658;23.350;2022-10-10T07:29:59;50793.31;;;-146.31;76.00
2036;BME280;23642;42.658;23.350;2022-10-10T08:06:57;50943.88;;;-146.31;71.33
2036;BME280;23642;42.658;23.350;2022-10-10T08:09:29;50943.88;;;-146.31;71.24
2036;BME280;23642;42.658;23.350;2022-10-10T08:11:56;50945.94;;;-146.31;71.56
2036;BME280;23642;42.658;23.350;2022-10-10T08:28:13;50991.31;;;-146.31;69.88
2036;BME280;23642;42.658;23.350;2022-10-10T08:30:43;51104.78;;;-146.31;70.32
2036;BME280;23642;42.658;23.350;2022-10-10T08:33:16;51047.00;;;-146.31;68.81
2036;BME280;23642;42.658;23.350;2022-10-10T08:35:46;51146.03;;;-146.31;68.13
2036;BME280;23642;42.658;23.350;2022-10-10T08:38:26;51080.03;;;-146.31;67.70
2036;BME280;23642;42.658;23.350;2022-10-10T08:40:54;51047.00;;;-146.31;67.08
2036;BME280;23642;42.658;23.350;2022-10-10T08:43:43;51141.91;;;-146.31;65.36
2036;BME280;23642;42.658;23.350;2022-10-10T08:46:17;51129.53;;;-146.31;67.12
2036;BME280;23642;42.658;23.350;2022-10-10T08:48:46;51195.53;;;-146.31;66.65
2036;BME280;23642;42.658;23.350;2022-10-10T08:51:25;51240.91;;;-146.31;66.03
2036;BME280;23642;42.658;23.350;2022-10-10T08:53:57;51238.84;;;-146.31;65.15
2036;BME280;23642;42.658;23.350;2022-10-10T08:56:29;51240.91;;;-146.31;63.95
2036;BME280;23642;42.658;23.350;2022-10-10T08:59:04;51261.56;;;-146.31;63.80
2036;BME280;23642;42.658;23.350;2022-10-10T09:01:36;51372.94;;;-146.31;64.09
2036;BME280;23642;42.658;23.350;2022-10-10T09:04:05;51313.13;;;-146.31;64.30
2036;BME280;23642;42.658;23.350;2022-10-10T09:06:48;51311.06;;;-146.31;62.28
2036;BME280;23642;42.658;23.350;2022-10-10T09:09:22;51329.63;;;-146.31;60.92
2036;BME280;23642;42.658;23.350;2022-10-10T09:12:14;51455.47;;;-146.31;61.04
2036;BME280;23642;42.658;23.350;2022-10-10T09:14:51;51438.97;;;-146.31;60.04
2036;BME280;23642;42.658;23.350;2022-10-10T09:17:31;51488.47;;;-146.31;59.51
2036;BME280;23642;42.658;23.350;2022-10-10T09:20:17;51540.06;;;-146.31;56.21
2036;BME280;23642;42.658;23.350;2022-10-10T09:22:52;51538.00;;;-146.31;55.53
2036;BME280;23642;42.658;23.350;2022-10-10T09:25:28;51595.75;;;-146.31;55.41
2036;BME280;23642;42.658;23.350;2022-10-10T09:28:01;51637.00;;;-146.31;54.92
2036;BME280;23642;42.658;23.350;2022-10-10T09:30:33;51562.75;;;-146.31;54.79
2036;BME280;23642;42.658;23.350;2022-10-10T09:33:09;51583.38;;;-146.31;53.57
2036;BME280;23642;42.658;23.350;2022-10-10T09:36:02;51624.63;;;-146.31;52.60
2036;BME280;23642;42.658;23.350;2022-10-10T09:38:38;51719.53;;;-146.31;52.36
2036;BME280;23642;42.658;23.350;2022-10-10T09:41:14;51769.06;;;-146.31;51.52
2036;BME280;23642;42.658;23.350;2022-10-10T09:43:43;51752.56;;;-146.31;52.70
2036;BME280;23642;42.658;23.350;2022-10-10T09:46:20;51771.13;;;-146.31;50.73
2036;BME280;23642;42.658;23.350;2022-10-10T09:48:58;51806.19;;;-146.31;51.76
2036;BME280;23642;42.658;23.350;2022-10-10T09:55:05;51884.59;;;-146.31;51.11
2036;BME280;23642;42.658;23.350;2022-10-10T09:57:41;51952.69;;;-146.31;51.29
2036;BME280;23642;42.658;23.350;2022-10-10T10:00:31;52055.84;;;-146.31;50.18
2036;BME280;23642;42.658;23.350;2022-10-10T10:03:11;52086.81;;;-146.31;50.84
2036;BME280;23642;42.658;23.350;2022-10-10T10:05:52;52004.28;;;-146.31;52.04
2036;BME280;23642;42.658;23.350;2022-10-10T10:08:36;52113.63;;;-146.31;50.49
2036;BME280;23642;42.658;23.350;2022-10-10T10:11:24;52111.56;;;-146.31;49.35
2036;BME280;23642;42.658;23.350;2022-10-10T10:13:54;52115.69;;;-146.31;50.24
2036;BME280;23642;42.658;23.350;2022-10-10T10:16:34;52126.00;;;-146.31;49.19
2036;BME280;23642;42.658;23.350;2022-10-10T10:19:04;52268.38;;;-146.31;47.94
2036;BME280;23642;42.658;23.350;2022-10-10T10:21:47;52489.19;;;-146.31;47.41
2036;BME280;23642;42.658;23.350;2022-10-10T10:24:21;52590.31;;;-146.31;47.18
2036;BME280;23642;42.658;23.350;2022-10-10T10:26:49;52551.09;;;-146.31;47.29
2036;BME280;23642;42.658;23.350;2022-10-10T10:29:27;52600.63;;;-146.31;47.60
2036;BME280;23642;42.658;23.350;2022-10-10T10:32:03;52557.28;;;-146.31;47.46
2036;BME280;23642;42.658;23.350;2022-10-10T10:34:51;52610.94;;;-146.31;45.79
2036;BME280;23642;42.658;23.350;2022-10-10T10:37:23;52685.25;;;-146.31;46.55
2036;BME280;23642;42.658;23.350;2022-10-10T10:40:10;52780.19;;;-146.31;45.69
2036;BME280;23642;42.658;23.350;2022-10-10T10:42:54;52776.06;;;-146.31;47.41
2036;BME280;23642;42.658;23.350;2022-10-10T10:45:31;52852.41;;;-146.31;46.71
2036;BME280;23642;42.658;23.350;2022-10-10T10:48:11;52821.44;;;-146.31;47.77
2036;BME280;23642;42.658;23.350;2022-10-10T10:50:51;52887.50;;;-146.31;46.39
2036;BME280;23642;42.658;23.350;2022-10-10T10:53:57;52866.84;;;-146.31;47.00
2036;BME280;23642;42.658;23.350;2022-10-10T10:56:33;52939.09;;;-146.31;46.79
2036;BME280;23642;42.658;23.350;2022-10-10T10:59:15;52974.19;;;-146.31;48.19
2036;BME280;23642;42.658;23.350;2022-10-10T11:01:54;52943.22;;;-146.31;48.51
2036;BME280;23642;42.658;23.350;2022-10-10T11:04:47;53065.00;;;-146.31;48.01
2036;BME280;23642;42.658;23.350;2022-10-10T11:07:22;53091.81;;;-146.31;49.39
2036;BME280;23642;42.658;23.350;2022-10-10T11:09:54;53102.16;;;-146.31;48.68
2036;BME280;23642;42.658;23.350;2022-10-10T11:12:36;53095.97;;;-146.31;47.20
2036;BME280;23642;42.658;23.350;2022-10-10T11:15:13;53044.34;;;-146.31;47.27
2036;BME280;23642;42.658;23.350;2022-10-10T11:17:45;53120.72;;;-146.31;47.33
2036;BME280;23642;42.658;23.350;2022-10-10T11:20:21;53151.69;;;-146.31;47.73
2036;BME280;23642;42.658;23.350;2022-10-10T11:22:56;53168.19;;;-146.31;48.68
2036;BME280;23642;42.658;23.350;2022-10-10T11:25:40;53186.78;;;-146.31;48.56
2036;BME280;23642;42.658;23.350;2022-10-10T11:28:12;53221.88;;;-146.31;48.96
2036;BME280;23642;42.658;23.350;2022-10-10T11:30:45;53246.63;;;-146.31;49.70
2036;BME280;23642;42.658;23.350;2022-10-10T11:33:18;53250.75;;;-146.31;49.74
2036;BME280;23642;42.658;23.350;2022-10-10T11:35:51;53283.78;;;-146.31;49.46
2036;BME280;23642;42.658;23.350;2022-10-10T11:38:24;53273.47;;;-146.31;49.42
2036;BME280;23642;42.658;23.350;2022-10-10T11:40:55;53244.56;;;-146.31;49.69
2036;BME280;23642;42.658;23.350;2022-10-10T11:43:33;53271.41;;;-146.31;49.04
2036;BME280;23642;42.658;23.350;2022-10-10T11:46:10;53292.03;;;-146.31;49.86
2036;BME280;23642;42.658;23.350;2022-10-10T11:48:46;53259.03;;;-146.31;49.13
2036;BME280;23642;42.658;23.350;2022-10-10T11:51:26;53263.16;;;-146.31;48.11
2036;BME280;23642;42.658;23.350;2022-10-10T11:57:28;53308.56;;;-146.31;48.16
2036;BME280;23642;42.658;23.350;2022-10-10T12:00:03;53271.41;;;-146.31;47.40
2036;BME280;23642;42.658;23.350;2022-10-10T12:02:34;53300.31;;;-146.31;47.23
2036;BME280;23642;42.658;23.350;2022-10-10T12:05:04;53252.81;;;-146.31;47.51
2036;BME280;23642;42.658;23.350;2022-10-10T12:07:37;53312.69;;;-146.31;47.81
2036;BME280;23642;42.658;23.350;2022-10-10T12:10:15;53333.31;;;-146.31;48.22
2036;BME280;23642;42.658;23.350;2022-10-10T12:12:49;53407.63;;;-146.31;47.18
2036;BME280;23642;42.658;23.350;2022-10-10T12:15:25;53387.00;;;-146.31;48.11
2036;BME280;23642;42.658;23.350;2022-10-10T12:17:57;53401.44;;;-146.31;47.46
2036;BME280;23642;42.658;23.350;2022-10-10T12:20:32;53345.72;;;-146.31;46.99
2036;BME280;23642;42.658;23.350;2022-10-10T12:23:18;53316.81;;;-146.31;45.96
2036;BME280;23642;42.658;23.350;2022-10-10T12:25:46;53269.34;;;-146.31;44.89
2036;BME280;23642;42.658;23.350;2022-10-10T12:28:28;53294.09;;;-146.31;45.17
2036;BME280;23642;42.658;23.350;2022-10-10T12:34:04;53380.81;;;-146.31;44.60
2036;BME280;23642;42.658;23.350;2022-10-10T12:40:01;53339.53;;;-146.31;44.21
2036;BME280;23642;42.658;23.350;2022-10-10T12:46:07;53403.50;;;-146.31;43.63
2036;BME280;23642;42.658;23.350;2022-10-10T12:48:34;53453.06;;;-146.31;45.21
2036;BME280;23642;42.658;23.350;2022-10-10T12:51:28;53403.50;;;-146.31;45.18
2036;BME280;23642;42.658;23.350;2022-10-10T12:53:57;53438.59;;;-146.31;44.59
2036;BME280;23642;42.658;23.350;2022-10-10T12:56:36;53434.47;;;-146.31;44.86
2036;BME280;23642;42.658;23.350;2022-10-10T12:59:18;53481.94;;;-146.31;44.77
2036;BME280;23642;42.658;23.350;2022-10-10T13:01:53;53411.75;;;-146.31;45.21
2036;BME280;23642;42.658;23.350;2022-10-10T13:04:23;53496.41;;;-146.31;45.49
2036;BME280;23642;42.658;23.350;2022-10-10T13:06:54;53541.81;;;-146.31;44.96
2036;BME280;23642;42.658;23.350;2022-10-10T13:09:24;53527.38;;;-146.31;44.94
2036;BME280;23642;42.658;23.350;2022-10-10T13:12:19;53465.44;;;-146.31;44.06
2036;BME280;23642;42.658;23.350;2022-10-10T13:14:46;53597.56;;;-146.31;44.80
2036;BME280;23642;42.658;23.350;2022-10-10T13:17:23;53486.06;;;-146.31;45.55
2036;BME280;23642;42.658;23.350;2022-10-10T13:19:53;53545.94;;;-146.31;45.55
2036;BME280;23642;42.658;23.350;2022-10-10T13:22:21;53595.47;;;-146.31;45.47
2036;BME280;23642;42.658;23.350;2022-10-10T13:24:50;53614.06;;;-146.31;46.50
2036;BME280;23642;42.658;23.350;2022-10-10T13:27:19;53612.00;;;-146.31;46.39
2036;BME280;23642;42.658;23.350;2022-10-10T13:29:50;53593.41;;;-146.31;46.01
2036;BME280;23642;42.658;23.350;2022-10-10T13:32:24;53591.34;;;-146.31;46.75
2036;BME280;23642;42.658;23.350;2022-10-10T13:34:54;53597.56;;;-146.31;45.25
2036;BME280;23642;42.658;23.350;2022-10-10T13:37:23;53634.72;;;-146.31;45.90
2036;BME280;23642;42.658;23.350;2022-10-10T13:39:51;53661.53;;;-146.31;47.39
2036;BME280;23642;42.658;23.350;2022-10-10T13:42:37;53647.09;;;-146.31;47.30
2036;BME280;23642;42.658;23.350;2022-10-10T13:45:27;53626.44;;;-146.31;47.03
2036;BME280;23642;42.658;23.350;2022-10-10T13:47:56;53661.53;;;-146.31;47.37
2036;BME280;23642;42.658;23.350;2022-10-10T13:53:43;53744.13;;;-146.31;46.97
2036;BME280;23642;42.658;23.350;2022-10-10T13:56:13;53746.19;;;-146.31;47.60
2036;BME280;23642;42.658;23.350;2022-10-10T13:58:42;53764.75;;;-146.31;47.72
2036;BME280;23642;42.658;23.350;2022-10-10T14:01:29;53756.50;;;-146.31;47.19
2036;BME280;23642;42.658;23.350;2022-10-10T14:04:07;53770.97;;;-146.31;47.05
2036;BME280;23642;42.658;23.350;2022-10-10T14:06:35;53775.09;;;-146.31;47.69
2036;BME280;23642;42.658;23.350;2022-10-10T14:09:08;53785.41;;;-146.31;48.14
2036;BME280;23642;42.658;23.350;2022-10-10T14:11:35;53799.84;;;-146.31;48.71
2036;BME280;23642;42.658;23.350;2022-10-10T14:14:19;53826.69;;;-146.31;48.28
2036;BME280;23642;42.658;23.350;2022-10-10T14:16:56;53820.50;;;-146.31;48.37
2036;BME280;23642;42.658;23.350;2022-10-10T14:19:25;53874.19;;;-146.31;48.49
2036;BME280;23642;42.658;23.350;2022-10-10T14:21:52;53915.47;;;-146.31;48.33
2036;BME280;23642;42.658;23.350;2022-10-10T14:24:19;53872.13;;;-146.31;48.48
2036;BME280;23642;42.658;23.350;2022-10-10T14:26:46;53882.44;;;-146.31;48.42
2036;BME280;23642;42.658;23.350;2022-10-10T14:29:16;53903.09;;;-146.31;49.05
2036;BME280;23642;42.658;23.350;2022-10-10T14:31:44;53940.25;;;-146.31;50.40
2036;BME280;23642;42.658;23.350;2022-10-10T14:34:20;53936.13;;;-146.31;49.58
2036;BME280;23642;42.658;23.350;2022-10-10T14:36:52;54035.22;;;-146.31;49.46
2036;BME280;23642;42.658;23.350;2022-10-10T14:39:19;54043.47;;;-146.31;49.96
2036;BME280;23642;42.658;23.350;2022-10-10T14:41:48;54043.47;;;-146.31;50.47
2036;BME280;23642;42.658;23.350;2022-10-10T14:44:15;54064.13;;;-146.31;49.49
2036;BME280;23642;42.658;23.350;2022-10-10T14:46:42;54055.84;;;-146.31;49.91
2036;BME280;23642;42.658;23.350;2022-10-10T14:49:16;54080.63;;;-146.31;49.32
2036;BME280;23642;42.658;23.350;2022-10-10T14:51:44;54093.03;;;-146.31;49.83
2036;BME280;23642;42.658;23.350;2022-10-10T14:54:16;54126.06;;;-146.31;50.08
2036;BME280;23642;42.658;23.350;2022-10-10T14:56:45;54157.03;;;-146.31;50.32
2036;BME280;23642;42.658;23.350;2022-10-10T14:59:16;54165.28;;;-146.31;51.46
2036;BME280;23642;42.658;23.350;2022-10-10T15:01:44;54159.09;;;-146.31;51.08
2036;BME280;23642;42.658;23.350;2022-10-10T15:04:13;54163.22;;;-146.31;51.36
2036;BME280;23642;42.658;23.350;2022-10-10T15:06:43;54171.47;;;-146.31;52.73
2036;BME280;23642;42.658;23.350;2022-10-10T15:12:19;54175.59;;;-146.31;53.33
2036;BME280;23642;42.658;23.350;2022-10-10T15:14:56;54159.09;;;-146.31;52.53
2036;BME280;23642;42.658;23.350;2022-10-10T15:17:23;54233.41;;;-146.31;52.26
2036;BME280;23642;42.658;23.350;2022-10-10T15:19:54;54225.16;;;-146.31;53.19
2036;BME280;23642;42.658;23.350;2022-10-10T15:22:35;54262.31;;;-146.31;53.00
2036;BME280;23642;42.658;23.350;2022-10-10T15:25:15;54229.28;;;-146.31;53.57
2036;BME280;23642;42.658;23.350;2022-10-10T15:27:42;54241.69;;;-146.31;54.32
2036;BME280;23642;42.658;23.350;2022-10-10T15:30:12;54249.94;;;-146.31;54.73
2036;BME280;23642;42.658;23.350;2022-10-10T15:32:42;54258.19;;;-146.31;54.48
2036;BME280;23642;42.658;23.350;2022-10-10T15:35:12;54291.22;;;-146.31;54.87
2036;BME280;23642;42.658;23.350;2022-10-10T15:37:39;54291.22;;;-146.31;55.86
2036;BME280;23642;42.658;23.350;2022-10-10T15:40:09;54303.63;;;-146.31;56.29
2036;BME280;23642;42.658;23.350;2022-10-10T15:42:37;54285.03;;;-146.31;56.06
2036;BME280;23642;42.658;23.350;2022-10-10T15:45:05;54309.81;;;-146.31;55.91
2036;BME280;23642;42.658;23.350;2022-10-10T15:47:38;54326.34;;;-146.31;56.71
2036;BME280;23642;42.658;23.350;2022-10-10T15:50:42;54328.41;;;-146.31;57.94
2036;BME280;23642;42.658;23.350;2022-10-10T15:53:27;54332.53;;;-146.31;58.27
2036;BME280;23642;42.658;23.350;2022-10-10T15:55:55;54346.97;;;-146.31;58.80
2036;BME280;23642;42.658;23.350;2022-10-10T15:58:22;54336.66;;;-146.31;59.11
2036;BME280;23642;42.658;23.350;2022-10-10T16:01:17;54359.38;;;-146.31;59.84
2036;BME280;23642;42.658;23.350;2022-10-10T16:03:45;54380.00;;;-146.31;60.00
2036;BME280;23642;42.658;23.350;2022-10-10T16:06:14;54386.22;;;-146.31;61.08
2036;BME280;23642;42.658;23.350;2022-10-10T16:08:44;54353.19;;;-146.31;61.33
2036;BME280;23642;42.658;23.350;2022-10-10T16:11:16;54384.16;;;-146.31;62.49
2036;BME280;23642;42.658;23.350;2022-10-10T16:13:46;54415.13;;;-146.31;63.49
2036;BME280;23642;42.658;23.350;2022-10-10T16:16:13;54365.56;;;-146.31;64.66
2036;BME280;23642;42.658;23.350;2022-10-10T16:18:40;54336.66;;;-146.31;64.93
2036;BME280;23642;42.658;23.350;2022-10-10T16:21:10;54313.94;;;-146.31;64.36
2036;BME280;23642;42.658;23.350;2022-10-10T16:23:37;54309.81;;;-146.31;64.97
2036;BME280;23642;42.658;23.350;2022-10-10T16:26:06;54295.34;;;-146.31;65.94
2036;BME280;23642;42.658;23.350;2022-10-10T16:28:37;54241.69;;;-146.31;66.90
2036;BME280;23642;42.658;23.350;2022-10-10T16:31:06;54192.13;;;-146.31;67.03
2036;BME280;23642;42.658;23.350;2022-10-10T16:33:35;54101.28;;;-146.31;67.70
2036;BME280;23642;42.658;23.350;2022-10-10T16:36:07;54082.69;;;-146.31;67.66
2036;BME280;23642;42.658;23.350;2022-10-10T16:38:35;54080.63;;;-146.31;68.10
2036;BME280;23642;42.658;23.350;2022-10-10T16:41:02;54031.09;;;-146.31;68.20
2036;BME280;23642;42.658;23.350;2022-10-10T16:43:32;54016.63;;;-146.31;68.65
2036;BME280;23642;42.658;23.350;2022-10-10T16:46:04;53967.09;;;-146.31;68.40
2036;BME280;23642;42.658;23.350;2022-10-10T16:48:32;53965.03;;;-146.31;68.30
2036;BME280;23642;42.658;23.350;2022-10-10T16:51:00;53958.81;;;-146.31;67.55
2036;BME280;23642;42.658;23.350;2022-10-10T16:53:34;53956.75;;;-146.31;67.70
2036;BME280;23642;42.658;23.350;2022-10-10T16:56:03;53958.81;;;-146.31;68.15
2036;BME280;23642;42.658;23.350;2022-10-10T16:58:32;53936.13;;;-146.31;68.31
2036;BME280;23642;42.658;23.350;2022-10-10T17:00:59;53934.06;;;-146.31;68.25
2036;BME280;23642;42.658;23.350;2022-10-10T17:03:27;53950.56;;;-146.31;68.20
2036;BME280;23642;42.658;23.350;2022-10-10T17:06:02;53956.75;;;-146.31;69.03
2036;BME280;23642;42.658;23.350;2022-10-10T17:08:29;53934.06;;;-146.31;69.50
2036;BME280;23642;42.658;23.350;2022-10-10T17:10:57;53960.88;;;-146.31;70.29
2036;BME280;23642;42.658;23.350;2022-10-10T17:13:27;53931.97;;;-146.31;70.55
2036;BME280;23642;42.658;23.350;2022-10-10T17:15:56;53919.59;;;-146.31;71.32
2036;BME280;23642;42.658;23.350;2022-10-10T17:18:23;53886.56;;;-146.31;70.94
2036;BME280;23642;42.658;23.350;2022-10-10T17:20:52;53907.22;;;-146.31;70.29
2036;BME280;23642;42.658;23.350;2022-10-10T17:23:21;53872.13;;;-146.31;70.53
2036;BME280;23642;42.658;23.350;2022-10-10T17:25:48;53903.09;;;-146.31;70.15
2036;BME280;23642;42.658;23.350;2022-10-10T17:28:15;53898.94;;;-146.31;70.53
2036;BME280;23642;42.658;23.350;2022-10-10T17:30:43;53915.47;;;-146.31;70.93
2036;BME280;23642;42.658;23.350;2022-10-10T17:33:11;53898.94;;;-146.31;70.94
2036;BME280;23642;42.658;23.350;2022-10-10T17:35:41;53903.09;;;-146.31;70.90
2036;BME280;23642;42.658;23.350;2022-10-10T17:38:10;53882.44;;;-146.31;70.95
2036;BME280;23642;42.658;23.350;2022-10-10T17:40:37;53874.19;;;-146.31;70.90
2036;BME280;23642;42.658;23.350;2022-10-10T17:43:04;53861.78;;;-146.31;71.11
2036;BME280;23642;42.658;23.350;2022-10-10T17:45:34;53804.00;;;-146.31;69.74
2036;BME280;23642;42.658;23.350;2022-10-10T17:48:03;53832.88;;;-146.31;69.95
2036;BME280;23642;42.658;23.350;2022-10-10T17:50:33;53824.63;;;-146.31;69.79
2036;BME280;23642;42.658;23.350;2022-10-10T17:53:00;53837.03;;;-146.31;70.18
2036;BME280;23642;42.658;23.350;2022-10-10T17:55:29;53820.50;;;-146.31;70.47
2036;BME280;23642;42.658;23.350;2022-10-10T17:57:56;53832.88;;;-146.31;69.65
2036;BME280;23642;42.658;23.350;2022-10-10T18:00:25;53837.03;;;-146.31;69.89
2036;BME280;23642;42.658;23.350;2022-10-10T18:02:51;53824.63;;;-146.31;69.28
2036;BME280;23642;42.658;23.350;2022-10-10T18:05:18;53826.69;;;-146.31;68.35
2036;BME280;23642;42.658;23.350;2022-10-10T18:07:46;53818.44;;;-146.31;67.07
2036;BME280;23642;42.658;23.350;2022-10-10T18:10:12;53818.44;;;-146.31;66.83
2036;BME280;23642;42.658;23.350;2022-10-10T18:12:47;53849.41;;;-146.31;66.33
2036;BME280;23642;42.658;23.350;2022-10-10T18:15:23;53839.09;;;-146.31;65.38
2036;BME280;23642;42.658;23.350;2022-10-10T18:17:51;53804.00;;;-146.31;65.17
2036;BME280;23642;42.658;23.350;2022-10-10T18:20:18;53863.84;;;-146.31;66.63
2036;BME280;23642;42.658;23.350;2022-10-10T18:22:58;53853.53;;;-146.31;65.98
2036;BME280;23642;42.658;23.350;2022-10-10T18:25:31;53870.06;;;-146.31;67.33
2036;BME280;23642;42.658;23.350;2022-10-10T18:28:09;53863.84;;;-146.31;67.33
2036;BME280;23642;42.658;23.350;2022-10-10T18:30:38;53878.31;;;-146.31;68.00
2036;BME280;23642;42.658;23.350;2022-10-10T18:33:05;53874.19;;;-146.31;67.48
2036;BME280;23642;42.658;23.350;2022-10-10T18:35:32;53865.91;;;-146.31;66.87
2036;BME280;23642;42.658;23.350;2022-10-10T18:37:59;53849.41;;;-146.31;66.80
2036;BME280;23642;42.658;23.350;2022-10-10T18:40:27;53874.19;;;-146.31;67.75
2036;BME280;23642;42.658;23.350;2022-10-10T18:42:54;53888.63;;;-146.31;67.80
2036;BME280;23642;42.658;23.350;2022-10-10T18:45:23;53894.81;;;-146.31;67.76
2036;BME280;23642;42.658;23.350;2022-10-10T18:47:53;53878.31;;;-146.31;67.75
2036;BME280;23642;42.658;23.350;2022-10-10T18:50:20;53861.78;;;-146.31;67.30
2036;BME280;23642;42.658;23.350;2022-10-10T18:52:47;53892.75;;;-146.31;67.79
2036;BME280;23642;42.658;23.350;2022-10-10T18:55:14;53890.69;;;-146.31;67.35
2036;BME280;23642;42.658;23.350;2022-10-10T18:57:42;53880.38;;;-146.31;66.80
2036;BME280;23642;42.658;23.350;2022-10-10T19:00:12;53849.41;;;-146.31;66.07
2036;BME280;23642;42.658;23.350;2022-10-10T19:02:43;53853.53;;;-146.31;65.18
2036;BME280;23642;42.658;23.350;2022-10-10T19:05:10;53867.97;;;-146.31;65.55
2036;BME280;23642;42.658;23.350;2022-10-10T19:08:05;53859.72;;;-146.31;66.00
2036;BME280;23642;42.658;23.350;2022-10-10T19:11:00;53884.50;;;-146.31;66.79
2036;BME280;23642;42.658;23.350;2022-10-10T19:13:45;53865.91;;;-146.31;67.04
2036;BME280;23642;42.658;23.350;2022-10-10T19:16:12;53876.25;;;-146.31;67.05
2036;BME280;23642;42.658;23.350;2022-10-10T19:19:18;53853.53;;;-146.31;67.16
2036;BME280;23642;42.658;23.350;2022-10-10T19:22:02;53859.72;;;-146.31;67.12
2036;BME280;23642;42.658;23.350;2022-10-10T19:24:28;53857.66;;;-146.31;67.68
2036;BME280;23642;42.658;23.350;2022-10-10T19:26:55;53861.78;;;-146.31;67.33
2036;BME280;23642;42.658;23.350;2022-10-10T19:29:25;53870.06;;;-146.31;68.01
2036;BME280;23642;42.658;23.350;2022-10-10T19:31:52;53855.59;;;-146.31;67.46
2036;BME280;23642;42.658;23.350;2022-10-10T19:34:21;53859.72;;;-146.31;67.99
2036;BME280;23642;42.658;23.350;2022-10-10T19:36:48;53847.34;;;-146.31;68.24
2036;BME280;23642;42.658;23.350;2022-10-10T19:39:15;53857.66;;;-146.31;67.36
2036;BME280;23642;42.658;23.350;2022-10-10T19:41:44;53882.44;;;-146.31;68.40
2036;BME280;23642;42.658;23.350;2022-10-10T19:44:11;53820.50;;;-146.31;67.41
2036;BME280;23642;42.658;23.350;2022-10-10T19:46:37;53822.56;;;-146.31;67.38
2036;BME280;23642;42.658;23.350;2022-10-10T19:49:05;53857.66;;;-146.31;67.98
2036;BME280;23642;42.658;23.350;2022-10-10T19:51:33;53863.84;;;-146.31;69.16
2036;BME280;23642;42.658;23.350;2022-10-10T19:54:00;53830.81;;;-146.31;68.38
2036;BME280;23642;42.658;23.350;2022-10-10T19:56:27;53837.03;;;-146.31;68.80
2036;BME280;23642;42.658;23.350;2022-10-10T19:58:55;53832.88;;;-146.31;67.80
2036;BME280;23642;42.658;23.350;2022-10-10T20:01:24;53845.28;;;-146.31;67.77
2036;BME280;23642;42.658;23.350;2022-10-10T20:03:52;53851.47;;;-146.31;68.40
2036;BME280;23642;42.658;23.350;2022-10-10T20:06:20;53837.03;;;-146.31;68.18
2036;BME280;23642;42.658;23.350;2022-10-10T20:08:50;53839.09;;;-146.31;68.50
2036;BME280;23642;42.658;23.350;2022-10-10T20:11:23;53861.78;;;-146.31;68.40
2036;BME280;23642;42.658;23.350;2022-10-10T20:13:53;53847.34;;;-146.31;67.88
2036;BME280;23642;42.658;23.350;2022-10-10T20:16:20;53845.28;;;-146.31;68.01
2036;BME280;23642;42.658;23.350;2022-10-10T20:18:47;53828.75;;;-146.31;67.78
2036;BME280;23642;42.658;23.350;2022-10-10T20:21:18;53859.72;;;-146.31;68.15
2036;BME280;23642;42.658;23.350;2022-10-10T20:23:47;53830.81;;;-146.31;67.73
2036;BME280;23642;42.658;23.350;2022-10-10T20:26:18;53843.22;;;-146.31;67.78
2036;BME280;23642;42.658;23.350;2022-10-10T20:31:34;53851.47;;;-146.31;68.45
2036;BME280;23642;42.658;23.350;2022-10-10T20:34:03;53843.22;;;-146.31;68.25
2036;BME280;23642;42.658;23.350;2022-10-10T20:36:35;53859.72;;;-146.31;67.99
2036;BME280;23642;42.658;23.350;2022-10-10T20:39:05;53882.44;;;-146.31;68.85
2036;BME280;23642;42.658;23.350;2022-10-10T20:41:34;53861.78;;;-146.31;69.16
2036;BME280;23642;42.658;23.350;2022-10-10T20:44:03;53855.59;;;-146.31;67.75
2036;BME280;23642;42.658;23.350;2022-10-10T20:46:33;53861.78;;;-146.31;68.48
2036;BME280;23642;42.658;23.350;2022-10-10T20:49:03;53861.78;;;-146.31;68.93